Time;durP1;ratioP1;P1;durP2;ratioP2;P2;SDS_P1;SDS_P2;PMS_P1;PMS_P2;Temp;Humidity;BMP_temperature;BMP_pressure;BME280_temperature;BME280_humidity;BME280_pressure;Samples;Min_cycle;Max_cycle;Signal;HPM_P1;HPM_P2
2021/09/18 00:00:15;;;;;;;14.87;9.27;;;;;;;18.22;86.44;99479.22;1779503;78;21022;-69
2021/09/18 00:02:43;;;;;;;14.70;9.40;;;;;;;18.20;86.65;99467.41;1781969;79;21564;-68
2021/09/18 00:05:10;;;;;;;15.37;9.53;;;;;;;18.23;86.87;99472.70;1771631;78;21022;-69
2021/09/18 00:07:37;;;;;;;15.67;9.77;;;;;;;18.24;87.07;99472.93;1791150;79;21145;-69
2021/09/18 00:10:05;;;;;;;12.83;9.27;;;;;;;18.24;87.28;99470.22;1767485;79;21674;-69
2021/09/18 00:12:32;;;;;;;12.43;9.40;;;;;;;18.23;87.46;99470.01;1777141;79;21042;-69
2021/09/18 00:15:01;;;;;;;15.50;9.70;;;;;;;18.24;87.61;99470.22;1789280;78;21088;-70
2021/09/18 00:17:29;;;;;;;13.17;9.20;;;;;;;18.26;87.76;99466.61;1793599;78;21108;-70
2021/09/18 00:19:56;;;;;;;14.90;10.23;;;;;;;18.27;87.86;99458.75;1785008;78;21066;-69
2021/09/18 00:22:24;;;;;;;14.10;9.93;;;;;;;18.26;87.98;99462.55;1782356;78;22119;-69
2021/09/18 00:24:52;;;;;;;13.40;9.97;;;;;;;18.28;88.07;99456.27;1777967;78;21703;-68
2021/09/18 00:27:19;;;;;;;16.37;11.10;;;;;;;18.25;88.17;99455.01;1782985;78;21477;-69
2021/09/18 00:29:45;;;;;;;13.93;10.57;;;;;;;18.26;88.29;99455.80;1788626;78;21106;-69
2021/09/18 00:32:12;;;;;;;13.43;10.20;;;;;;;18.27;88.38;99453.34;1795929;78;21045;-69
2021/09/18 00:34:38;;;;;;;17.57;10.83;;;;;;;18.25;88.49;99450.95;1787552;78;21616;-68
2021/09/18 00:37:06;;;;;;;17.03;10.70;;;;;;;18.27;88.58;99447.94;1787812;78;21152;-68
2021/09/18 00:39:32;;;;;;;16.97;11.37;;;;;;;18.29;88.69;99452.42;1773150;78;21497;-69
2021/09/18 00:42:00;;;;;;;16.87;10.70;;;;;;;18.30;88.75;99447.83;1787025;79;21090;-69
2021/09/18 00:44:28;;;;;;;14.20;10.40;;;;;;;18.28;88.81;99444.09;1773246;78;21549;-69
2021/09/18 00:46:54;;;;;;;14.73;10.63;;;;;;;18.28;88.97;99440.05;1789725;78;21030;-69
2021/09/18 00:49:21;;;;;;;17.30;10.80;;;;;;;18.23;89.01;99441.62;1776943;78;21026;-69
2021/09/18 00:51:49;;;;;;;16.13;10.57;;;;;;;18.24;89.13;99439.14;1790590;79;21153;-69
2021/09/18 00:54:16;;;;;;;15.07;10.97;;;;;;;18.21;89.25;99437.89;1782592;78;21743;-69
2021/09/18 00:56:45;;;;;;;18.93;12.00;;;;;;;18.20;89.36;99438.24;1791643;78;21030;-69
2021/09/18 00:59:13;;;;;;;16.93;11.63;;;;;;;18.21;89.47;99437.89;1786968;79;21062;-69
2021/09/18 01:01:40;;;;;;;16.00;11.43;;;;;;;18.21;89.58;99427.08;1773285;78;21058;-68
2021/09/18 01:04:06;;;;;;;21.10;12.97;;;;;;;18.23;89.70;99422.70;1785220;78;21070;-69
2021/09/18 01:06:33;;;;;;;17.30;12.10;;;;;;;18.26;89.76;99423.36;1789348;78;21106;-68
2021/09/18 01:09:01;;;;;;;14.20;11.60;;;;;;;18.28;89.82;99418.42;1781472;78;21050;-69
2021/09/18 01:11:29;;;;;;;18.83;12.50;;;;;;;18.27;89.91;99416.28;1782172;79;21137;-69
2021/09/18 01:13:56;;;;;;;16.43;11.73;;;;;;;18.26;90.04;99412.55;1796280;78;21085;-69
2021/09/18 01:16:25;;;;;;;14.63;12.13;;;;;;;18.27;90.19;99405.47;1776288;79;21529;-69
2021/09/18 01:18:52;;;;;;;20.77;12.40;;;;;;;18.27;90.28;99407.39;1770200;79;21031;-69
2021/09/18 01:21:21;;;;;;;15.20;12.67;;;;;;;18.30;90.39;99404.02;1791698;78;21358;-70
2021/09/18 01:23:49;;;;;;;16.97;12.50;;;;;;;18.30;90.50;99405.37;1792155;79;21581;-69
2021/09/18 01:26:16;;;;;;;14.77;12.30;;;;;;;18.30;90.57;99404.02;1784343;78;21033;-69
2021/09/18 01:28:43;;;;;;;15.53;12.70;;;;;;;18.33;90.64;99403.88;1778308;78;21079;-69
2021/09/18 01:31:10;;;;;;;15.30;12.70;;;;;;;18.36;90.71;99397.80;1784329;79;21094;-69
2021/09/18 01:33:39;;;;;;;17.40;12.67;;;;;;;18.38;90.66;99399.05;1776576;78;21572;-70
2021/09/18 01:36:06;;;;;;;16.97;12.60;;;;;;;18.39;90.64;99396.56;1780908;79;21014;-69
2021/09/18 01:38:32;;;;;;;21.10;13.93;;;;;;;18.39;90.65;99396.56;1774915;79;21007;-69
2021/09/18 01:40:59;;;;;;;17.77;12.33;;;;;;;18.40;90.67;99388.70;1791858;78;21109;-69
2021/09/18 01:43:29;;;;;;;17.43;12.87;;;;;;;18.42;90.68;99387.78;1792482;78;21024;-70
2021/09/18 01:45:57;;;;;;;16.37;13.17;;;;;;;18.44;90.76;99378.78;1778893;79;21061;-69
2021/09/18 01:48:24;;;;;;;16.17;12.70;;;;;;;18.44;90.70;99380.13;1784205;78;21300;-69
2021/09/18 01:50:55;;;;;;;16.37;13.33;;;;;;;18.47;90.69;99380.03;1780989;78;21291;-69
2021/09/18 01:53:24;;;;;;;17.20;12.93;;;;;;;18.49;90.62;99378.57;1781669;78;21070;-69
2021/09/18 01:55:52;;;;;;;20.13;13.03;;;;;;;18.50;90.59;99379.35;1777626;78;21565;-69
2021/09/18 01:58:24;;;;;;;15.10;12.40;;;;;;;18.53;90.47;99372.48;1782900;79;21046;-69
2021/09/18 02:00:55;;;;;;;14.87;12.47;;;;;;;18.48;90.53;99372.13;1783221;78;21062;-70
2021/09/18 02:03:23;;;;;;;17.90;12.93;;;;;;;18.46;90.53;99368.43;1787398;78;21094;-69
2021/09/18 02:05:50;;;;;;;17.27;12.80;;;;;;;18.46;90.54;99361.67;1794635;79;20986;-69
2021/09/18 02:08:18;;;;;;;13.37;11.70;;;;;;;18.44;90.52;99363.13;1777138;78;21000;-69
2021/09/18 02:10:44;;;;;;;16.07;12.67;;;;;;;18.44;90.63;99359.86;1783209;79;21034;-69
2021/09/18 02:13:12;;;;;;;16.67;11.53;;;;;;;18.42;90.65;99360.75;1786814;78;21049;-69
2021/09/18 02:15:39;;;;;;;14.10;10.80;;;;;;;18.40;90.66;99352.77;1769827;79;21054;-69
2021/09/18 02:18:09;;;;;;;14.77;11.20;;;;;;;18.37;90.75;99353.45;1784923;79;21034;-70
2021/09/18 02:20:37;;;;;;;12.90;10.50;;;;;;;18.34;90.85;99346.80;1809504;78;21089;-70
2021/09/18 02:23:05;;;;;;;15.60;11.30;;;;;;;18.29;91.00;99351.06;1781783;78;21390;-70
2021/09/18 02:25:33;;;;;;;15.07;10.83;;;;;;;18.30;91.14;99347.25;1787406;78;21563;-67
2021/09/18 02:27:59;;;;;;;14.53;11.70;;;;;;;18.32;91.23;99349.03;1790226;78;21635;-69
2021/09/18 02:30:29;;;;;;;11.83;10.53;;;;;;;18.34;91.27;99344.09;1779639;78;22043;-69
2021/09/18 02:32:56;;;;;;;13.80;10.87;;;;;;;18.38;91.31;99341.50;1779123;78;21165;-69
2021/09/18 02:35:26;;;;;;;12.37;10.80;;;;;;;18.35;91.32;99337.55;1770961;78;21007;-68
2021/09/18 02:37:54;;;;;;;12.93;11.50;;;;;;;18.34;91.41;99334.62;1785937;78;21060;-69
2021/09/18 02:40:23;;;;;;;12.50;10.13;;;;;;;18.37;91.52;99338.01;1772341;78;21556;-70
2021/09/18 02:42:52;;;;;;;12.97;11.07;;;;;;;18.39;91.50;99334.95;1777322;79;21507;-69
2021/09/18 02:45:21;;;;;;;11.80;10.27;;;;;;;18.35;91.54;99338.90;1785151;78;21077;-70
2021/09/18 02:47:48;;;;;;;12.97;10.50;;;;;;;18.36;91.63;99339.69;1790201;79;21027;-69
2021/09/18 02:50:17;;;;;;;14.83;11.27;;;;;;;18.33;91.70;99338.47;1794410;79;21092;-70
2021/09/18 02:52:45;;;;;;;13.93;10.33;;;;;;;18.34;91.83;99341.95;1774738;78;21089;-70
2021/09/18 02:55:13;;;;;;;14.30;11.70;;;;;;;18.33;91.89;99342.52;1788820;78;21546;-70
2021/09/18 02:57:41;;;;;;;16.03;11.70;;;;;;;18.35;92.04;99345.66;1790158;78;21058;-69
2021/09/18 03:00:11;;;;;;;12.70;11.10;;;;;;;18.39;92.12;99343.84;1779590;78;21564;-69
2021/09/18 03:02:37;;;;;;;13.53;11.47;;;;;;;18.44;92.12;99340.93;1781703;79;21536;-70
2021/09/18 03:05:06;;;;;;;12.27;10.53;;;;;;;18.46;92.04;99348.72;1784658;78;21034;-70
2021/09/18 03:07:34;;;;;;;11.17;9.37;;;;;;;18.47;92.02;99341.61;1790372;79;22045;-70
2021/09/18 03:10:02;;;;;;;12.77;10.63;;;;;;;18.47;92.02;99338.91;1778654;78;21030;-69
2021/09/18 03:12:28;;;;;;;12.50;11.13;;;;;;;18.43;92.02;99336.66;1783136;79;20999;-70
2021/09/18 03:14:56;;;;;;;12.87;10.53;;;;;;;18.42;92.07;99335.06;1775110;79;21022;-69
2021/09/18 03:17:23;;;;;;;12.07;9.53;;;;;;;18.40;92.13;99328.44;1791609;78;21987;-70
2021/09/18 03:19:54;;;;;;;11.50;10.17;;;;;;;18.41;92.19;99324.03;1780335;78;21058;-70
2021/09/18 03:22:23;;;;;;;14.57;10.90;;;;;;;18.36;92.30;99328.33;1787945;78;21557;-70
2021/09/18 03:24:51;;;;;;;12.63;11.23;;;;;;;18.31;92.49;99324.49;1775908;79;21078;-69
2021/09/18 03:27:18;;;;;;;13.63;11.50;;;;;;;18.30;92.61;99324.28;1773959;78;21038;-69
2021/09/18 03:29:45;;;;;;;13.30;11.33;;;;;;;18.31;92.77;99313.68;1788637;78;21042;-69
2021/09/18 03:32:11;;;;;;;13.50;10.70;;;;;;;18.33;92.88;99317.38;1788022;79;21089;-70
2021/09/18 03:34:39;;;;;;;12.93;11.63;;;;;;;18.33;92.99;99313.33;1785788;78;21069;-70
2021/09/18 03:37:05;;;;;;;12.43;11.13;;;;;;;18.36;93.02;99309.95;1782669;78;21023;-70
2021/09/18 03:39:32;;;;;;;12.43;11.13;;;;;;;18.39;93.10;99304.65;1784412;78;21066;-70
2021/09/18 03:42:00;;;;;;;13.30;11.60;;;;;;;18.39;93.14;99297.89;1783630;78;21532;-69
2021/09/18 03:44:27;;;;;;;13.53;11.53;;;;;;;18.39;93.22;99304.65;1785599;79;21098;-69
2021/09/18 03:46:54;;;;;;;14.23;12.50;;;;;;;18.37;93.28;99302.08;1789782;78;21579;-69
2021/09/18 03:49:21;;;;;;;14.80;12.90;;;;;;;18.37;93.39;99305.57;1785257;79;21092;-69
2021/09/18 03:51:49;;;;;;;13.67;12.17;;;;;;;18.43;93.52;99305.56;1788516;78;21061;-69
2021/09/18 03:54:17;;;;;;;15.97;13.03;;;;;;;18.48;93.51;99308.59;1792890;78;21034;-70
2021/09/18 03:56:44;;;;;;;16.57;13.00;;;;;;;18.54;93.52;99307.80;1791971;79;21135;-68
2021/09/18 03:59:13;;;;;;;17.03;13.20;;;;;;;18.62;93.51;99306.87;1783172;79;21059;-69
2021/09/18 04:01:40;;;;;;;16.43;13.07;;;;;;;18.67;93.52;99295.84;1789203;78;21060;-69
2021/09/18 04:04:09;;;;;;;15.17;13.57;;;;;;;18.73;93.46;99297.20;1782216;78;21515;-69
2021/09/18 04:06:36;;;;;;;18.47;13.40;;;;;;;18.77;93.33;99294.03;1791643;78;21624;-68
2021/09/18 04:09:04;;;;;;;16.47;14.07;;;;;;;18.81;93.16;99292.22;1786933;78;21138;-69
2021/09/18 04:11:31;;;;;;;17.93;13.77;;;;;;;18.83;93.07;99293.23;1794259;79;21135;-69
2021/09/18 04:13:58;;;;;;;18.77;13.50;;;;;;;18.90;93.00;99298.28;1799485;78;21074;-68
2021/09/18 04:16:26;;;;;;;17.13;13.10;;;;;;;18.93;92.71;99289.48;1784436;78;21030;-69
2021/09/18 04:18:54;;;;;;;17.83;13.33;;;;;;;18.98;92.57;99291.14;1778772;78;21050;-69
2021/09/18 04:21:21;;;;;;;15.60;13.37;;;;;;;19.03;92.31;99291.48;1779852;78;21103;-69
2021/09/18 04:23:47;;;;;;;16.40;12.60;;;;;;;19.04;92.10;99288.41;1773907;79;21026;-69
2021/09/18 04:26:14;;;;;;;14.97;13.30;;;;;;;19.06;92.00;99296.20;1793345;78;21882;-69
2021/09/18 04:28:43;;;;;;;17.47;13.23;;;;;;;19.06;91.87;99289.44;1793868;79;21019;-69
2021/09/18 04:31:09;;;;;;;16.63;13.87;;;;;;;19.06;91.81;99286.17;1798631;78;21069;-69
2021/09/18 04:46:00;;;;;;;17.57;13.90;;;;;;;19.60;90.48;99288.36;1754088;79;24485;-73
2021/09/18 04:48:28;;;;;;;16.47;13.50;;;;;;;19.53;90.10;99288.75;1755726;80;21036;-76
2021/09/18 04:50:55;;;;;;;16.10;13.47;;;;;;;19.47;89.93;99284.16;1752684;79;21511;-74
2021/09/18 04:53:23;;;;;;;14.97;13.43;;;;;;;19.43;89.87;99285.98;1755513;80;21056;-75
2021/09/18 04:55:51;;;;;;;15.17;13.63;;;;;;;19.40;89.83;99283.41;1747268;81;21062;-75
2021/09/18 04:58:17;;;;;;;16.17;14.47;;;;;;;19.37;89.82;99285.45;1746996;79;21574;-74
2021/09/18 05:00:44;;;;;;;16.50;14.30;;;;;;;19.38;89.86;99285.69;1757591;80;21156;-74
2021/09/18 05:03:11;;;;;;;18.67;13.07;;;;;;;19.41;89.85;99289.59;1754356;81;21097;-75
2021/09/18 05:05:39;;;;;;;16.37;14.30;;;;;;;19.43;89.84;99285.42;1753139;81;21062;-74
2021/09/18 05:08:06;;;;;;;17.27;14.77;;;;;;;19.44;89.79;99279.43;1753971;81;21018;-74
2021/09/18 05:10:34;;;;;;;20.13;15.33;;;;;;;19.49;89.74;99276.48;1756584;81;21061;-75
2021/09/18 05:13:02;;;;;;;19.93;15.20;;;;;;;19.55;89.63;99286.50;1758032;81;21563;-74
2021/09/18 05:15:30;;;;;;;17.23;14.97;;;;;;;19.59;89.52;99281.38;1762323;81;21114;-74
2021/09/18 05:17:57;;;;;;;19.10;15.00;;;;;;;19.66;89.28;99277.52;1743158;81;21046;-74
2021/09/18 05:20:25;;;;;;;17.43;15.47;;;;;;;19.69;88.98;99282.81;1749087;81;21053;-74
2021/09/18 05:22:52;;;;;;;19.83;16.07;;;;;;;19.74;88.89;99276.34;1768828;81;21541;-75
2021/09/18 05:25:19;;;;;;;19.00;15.07;;;;;;;19.78;88.68;99277.23;1745142;81;21007;-74
2021/09/18 05:27:47;;;;;;;18.37;13.50;;;;;;;19.80;88.36;99275.73;1753868;81;21144;-73
2021/09/18 05:30:14;;;;;;;17.73;14.03;;;;;;;19.80;88.02;99282.50;1754651;81;21086;-74
2021/09/18 05:32:42;;;;;;;17.00;13.57;;;;;;;19.81;87.70;99289.52;1739294;79;21078;-74
2021/09/18 05:35:09;;;;;;;15.40;13.63;;;;;;;19.81;87.40;99277.32;1693025;83;21643;-73
2021/09/18 05:37:36;;;;;;;15.90;14.20;;;;;;;19.80;87.11;99277.66;1702541;83;21090;-73
2021/09/18 05:40:11;;;;;;;15.70;12.93;;;;;;;19.77;86.90;99279.14;1643340;86;21222;-73
2021/09/18 05:42:37;;;;;;;18.60;13.47;;;;;;;19.78;86.76;99278.02;1643198;86;22118;-73
2021/09/18 05:45:06;;;;;;;16.17;13.27;;;;;;;19.79;86.66;99276.09;1639395;86;21072;-73
2021/09/18 05:47:33;;;;;;;15.40;13.07;;;;;;;19.79;86.49;99278.23;1635882;87;21032;-73
2021/09/18 05:50:00;;;;;;;16.43;12.67;;;;;;;19.84;86.37;99275.81;1638146;86;21585;-73
2021/09/18 05:52:29;;;;;;;15.33;12.07;;;;;;;19.87;86.12;99275.12;1636560;86;21149;-73
2021/09/18 05:54:56;;;;;;;15.27;12.77;;;;;;;19.87;85.89;99275.92;1659917;85;21111;-74
2021/09/18 05:57:23;;;;;;;17.60;13.73;;;;;;;19.91;85.74;99274.66;1658769;85;21168;-71
2021/09/18 05:59:50;;;;;;;15.77;13.47;;;;;;;19.96;85.60;99272.23;1655664;85;21130;-73
2021/09/18 06:02:17;;;;;;;17.53;13.87;;;;;;;20.00;85.27;99276.59;1657939;86;21121;-75
2021/09/18 06:04:46;;;;;;;18.13;13.27;;;;;;;20.04;84.84;99279.39;1659209;85;21032;-72
2021/09/18 06:07:13;;;;;;;17.30;13.53;;;;;;;20.07;84.59;99275.43;1656370;85;21145;-71
2021/09/18 06:09:39;;;;;;;16.03;13.60;;;;;;;20.10;84.29;99273.92;1654042;85;21165;-72
2021/09/18 06:12:08;;;;;;;16.83;14.07;;;;;;;20.12;83.98;99275.14;1660596;85;21097;-72
2021/09/18 06:14:37;;;;;;;17.00;15.23;;;;;;;20.14;83.53;99281.59;1651681;85;21447;-73
2021/09/18 06:17:03;;;;;;;19.97;14.70;;;;;;;20.11;83.29;99283.07;1654121;86;21584;-72
2021/09/18 06:19:30;;;;;;;16.67;14.90;;;;;;;20.13;83.06;99290.84;1656120;85;21048;-73
2021/09/18 06:21:57;;;;;;;18.17;15.20;;;;;;;20.13;82.79;99285.42;1661113;84;21091;-73
2021/09/18 06:24:25;;;;;;;15.50;13.03;;;;;;;20.13;82.59;99285.42;1657191;85;21104;-73
2021/09/18 06:26:53;;;;;;;17.43;15.37;;;;;;;20.13;82.25;99284.84;1655588;85;21100;-72
2021/09/18 06:29:20;;;;;;;17.07;14.50;;;;;;;20.10;81.98;99283.41;1655770;85;22029;-73
2021/09/18 06:31:47;;;;;;;16.83;15.10;;;;;;;20.07;81.60;99277.33;1654413;86;21720;-73
2021/09/18 06:34:13;;;;;;;19.27;15.50;;;;;;;20.05;81.53;99286.40;1658203;85;21109;-72
2021/09/18 06:36:41;;;;;;;18.00;15.30;;;;;;;20.06;81.52;99290.67;1656134;86;21100;-74
2021/09/18 06:39:08;;;;;;;20.67;15.63;;;;;;;20.08;81.41;99291.91;1655806;85;21123;-73
2021/09/18 06:41:34;;;;;;;16.57;14.87;;;;;;;20.11;81.25;99297.98;1656252;85;21787;-74
2021/09/18 06:44:01;;;;;;;17.57;14.37;;;;;;;20.16;81.22;99288.78;1654619;85;21321;-74
2021/09/18 06:46:29;;;;;;;16.90;15.27;;;;;;;20.20;80.94;99292.92;1681363;85;21163;-74
2021/09/18 06:48:56;;;;;;;15.80;14.20;;;;;;;20.21;80.84;99295.30;1665314;83;21066;-73
2021/09/18 06:51:25;;;;;;;16.20;13.50;;;;;;;20.27;80.65;99292.55;1655563;85;21089;-75
2021/09/18 06:53:52;;;;;;;14.77;12.77;;;;;;;20.31;80.46;99292.05;1656667;85;21102;-74
2021/09/18 06:56:23;;;;;;;14.83;13.10;;;;;;;20.35;80.36;99297.55;1664768;85;21634;-74
2021/09/18 06:58:51;;;;;;;15.23;13.72;;;;;;;20.38;79.92;99296.27;1632396;85;21069;-75
2021/09/18 07:01:18;;;;;;;14.70;13.03;;;;;;;20.39;79.83;99295.13;1659154;85;21005;-74
2021/09/18 07:03:44;;;;;;;14.77;12.50;;;;;;;20.45;79.61;99290.80;1658531;85;21097;-75
2021/09/18 07:06:11;;;;;;;14.20;12.40;;;;;;;20.51;79.32;99295.62;1672368;85;21127;-75
2021/09/18 07:08:38;;;;;;;14.97;12.60;;;;;;;20.57;79.05;99297.50;1656880;85;21088;-75
2021/09/18 07:11:06;;;;;;;16.00;13.13;;;;;;;20.60;78.85;99292.14;1657644;85;21084;-74
2021/09/18 07:13:33;;;;;;;14.30;12.80;;;;;;;20.66;78.63;99287.20;1663950;85;21069;-74
2021/09/18 07:16:02;;;;;;;15.13;11.63;;;;;;;20.72;78.47;99283.07;1659250;85;21557;-73
2021/09/18 07:18:30;;;;;;;14.03;11.50;;;;;;;20.79;78.13;99285.93;1680246;85;21231;-73
2021/09/18 07:20:58;;;;;;;14.80;11.57;;;;;;;20.83;77.73;99280.03;1656760;85;21052;-74
2021/09/18 07:23:24;;;;;;;16.13;11.93;;;;;;;20.90;77.55;99273.17;1656000;85;21092;-73
2021/09/18 07:25:51;;;;;;;12.83;10.93;;;;;;;20.96;77.00;99274.44;1655228;85;21065;-74
2021/09/18 07:28:17;;;;;;;12.67;11.40;;;;;;;21.01;76.22;99272.23;1653470;85;21227;-74
2021/09/18 07:30:46;;;;;;;15.43;12.80;;;;;;;21.07;75.90;99274.09;1649545;85;21100;-73
2021/09/18 07:33:12;;;;;;;13.40;12.07;;;;;;;21.09;75.56;99275.86;1663183;85;21079;-74
2021/09/18 07:35:39;;;;;;;13.37;11.87;;;;;;;21.07;74.99;99271.38;1651621;86;21128;-77
2021/09/18 07:38:06;;;;;;;14.00;12.40;;;;;;;21.00;74.74;99280.16;1655811;85;21100;-76
2021/09/18 07:40:34;;;;;;;13.53;12.13;;;;;;;20.94;74.71;99274.80;1648698;85;21111;-76
2021/09/18 07:43:00;;;;;;;15.83;12.50;;;;;;;20.90;74.70;99278.03;1646988;85;21238;-77
2021/09/18 07:45:28;;;;;;;12.90;11.60;;;;;;;20.87;74.77;99279.31;1653919;86;22266;-80
2021/09/18 07:47:55;;;;;;;15.97;11.70;;;;;;;20.85;74.84;99281.80;1652775;85;21586;-76
2021/09/18 07:50:22;;;;;;;13.27;11.50;;;;;;;20.82;74.75;99271.65;1650645;85;21579;-78
2021/09/18 07:52:50;;;;;;;13.00;11.60;;;;;;;20.79;74.66;99274.30;1654199;85;22360;-77
2021/09/18 07:55:19;;;;;;;13.93;12.10;;;;;;;20.75;74.40;99274.22;1649765;85;21699;-76
2021/09/18 07:57:45;;;;;;;15.90;12.67;;;;;;;20.70;74.36;99269.09;1648630;85;21072;-77
2021/09/18 08:00:13;;;;;;;11.63;10.43;;;;;;;20.66;74.33;99269.56;1652713;85;21606;-76
2021/09/18 08:02:43;;;;;;;13.57;11.80;;;;;;;20.60;74.25;99275.08;1656508;85;21750;-78
2021/09/18 08:05:11;;;;;;;12.53;10.77;;;;;;;20.52;74.27;99278.77;1653681;85;21899;-78
2021/09/18 08:07:39;;;;;;;14.10;9.93;;;;;;;20.43;74.15;99280.86;1654799;84;21116;-77
2021/09/18 08:10:10;;;;;;;13.53;9.90;;;;;;;20.34;74.33;99285.14;1658599;85;21144;-77
2021/09/18 08:12:37;;;;;;;10.83;8.53;;;;;;;20.26;74.02;99292.30;1658186;85;21803;-76
2021/09/18 08:15:06;;;;;;;10.73;8.20;;;;;;;20.21;74.11;99293.16;1656855;85;21065;-77
2021/09/18 08:17:34;;;;;;;9.37;8.23;;;;;;;20.17;74.02;99287.66;1650710;85;21282;-75
2021/09/18 08:20:00;;;;;;;8.97;7.97;;;;;;;20.14;74.17;99297.86;1662310;85;21826;-77
2021/09/18 08:22:27;;;;;;;10.80;8.20;;;;;;;20.14;74.23;99298.64;1663846;85;21122;-76
2021/09/18 08:24:56;;;;;;;8.93;7.53;;;;;;;20.12;74.14;99305.54;1657496;85;21112;-75
2021/09/18 08:27:23;;;;;;;11.27;7.67;;;;;;;20.08;73.91;99306.03;1646840;85;21092;-75
2021/09/18 08:29:50;;;;;;;10.30;6.50;;;;;;;20.01;73.65;99307.22;1654351;85;21076;-76
2021/09/18 08:32:17;;;;;;;8.10;5.90;;;;;;;19.97;73.51;99307.11;1645171;85;21115;-75
2021/09/18 08:34:45;;;;;;;7.50;6.10;;;;;;;19.94;73.33;99309.19;1650904;85;21116;-74
2021/09/18 08:37:11;;;;;;;7.13;5.93;;;;;;;19.87;73.34;99320.64;1675019;85;21560;-74
2021/09/18 08:39:38;;;;;;;7.17;5.90;;;;;;;19.79;73.51;99316.73;1659084;85;21155;-74
2021/09/18 08:42:09;;;;;;;8.10;6.30;;;;;;;19.77;73.63;99321.13;1657665;86;21127;-74
2021/09/18 08:44:36;;;;;;;6.93;5.50;;;;;;;19.78;73.52;99317.30;1634336;85;21170;-74
2021/09/18 08:47:05;;;;;;;6.47;5.77;;;;;;;19.82;73.44;99318.17;1656945;85;21573;-73
2021/09/18 08:49:33;;;;;;;6.40;5.70;;;;;;;19.94;72.93;99317.31;1658075;85;21724;-74
2021/09/18 08:52:00;;;;;;;5.93;4.87;;;;;;;20.11;72.66;99320.23;1657887;86;21072;-72
2021/09/18 08:54:28;;;;;;;5.80;5.20;;;;;;;20.32;71.36;99319.38;1658811;85;21633;-72
2021/09/18 08:56:56;;;;;;;6.90;5.07;;;;;;;20.43;70.98;99312.83;1664870;85;21141;-72
2021/09/18 08:59:24;;;;;;;5.57;5.07;;;;;;;20.53;70.25;99301.48;1633390;86;21211;-74
2021/09/18 09:02:18;;;;;;;5.37;4.70;;;;;;;20.59;69.20;99315.54;1663230;84;21130;-73
2021/09/18 09:04:45;;;;;;;5.20;4.70;;;;;;;20.53;69.20;99318.30;1631597;86;21100;-73
2021/09/18 09:07:14;;;;;;;4.43;3.63;;;;;;;20.46;68.90;99318.13;1669031;85;21047;-73
2021/09/18 09:09:59;;;;;;;3.93;3.53;;;;;;;20.39;68.68;99324.17;1662343;85;21180;-73
2021/09/18 09:12:31;;;;;;;3.80;3.40;;;;;;;20.30;68.68;99325.73;1651655;84;21017;-74
2021/09/18 09:27:21;;;;;;;3.30;2.70;;;;;;;20.52;68.69;99329.73;1789552;79;27230;-73
2021/09/18 09:29:53;;;;;;;4.20;2.50;;;;;;;20.45;68.62;99334.97;1754506;79;21074;-74
2021/09/18 09:32:39;;;;;;;3.20;2.60;;;;;;;20.37;68.86;99335.39;1750277;81;21609;-73
2021/09/18 09:35:14;;;;;;;2.83;2.40;;;;;;;20.27;69.18;99337.28;1744991;81;21022;-72
2021/09/18 09:37:54;;;;;;;4.30;2.50;;;;;;;20.14;69.57;99334.45;1736506;81;21093;-73
2021/09/18 09:40:41;;;;;;;2.70;2.03;;;;;;;20.02;70.05;99341.30;1742769;79;21635;-71
2021/09/18 09:43:10;;;;;;;2.73;2.00;;;;;;;19.90;70.46;99338.09;1742167;79;21045;-72
2021/09/18 09:45:37;;;;;;;2.80;1.80;;;;;;;19.76;70.98;99348.58;1750527;81;21372;-71
2021/09/18 09:48:08;;;;;;;2.30;2.00;;;;;;;19.71;71.56;99350.99;1749444;81;21058;-72
2021/09/18 09:50:35;;;;;;;2.87;2.13;;;;;;;19.59;72.26;99351.02;1748460;81;21540;-74
2021/09/18 09:53:02;;;;;;;4.27;2.70;;;;;;;19.38;73.57;99368.81;1746390;81;21007;-72
2021/09/18 09:55:34;;;;;;;3.80;2.37;;;;;;;19.15;74.69;99371.26;1756035;81;21125;-74
2021/09/18 09:58:07;;;;;;;3.17;2.40;;;;;;;18.90;76.10;99379.45;1711938;81;21047;-75
2021/09/18 10:00:46;;;;;;;4.30;3.20;;;;;;;18.55;76.90;99375.05;1752041;81;21486;-71
2021/09/18 10:03:12;;;;;;;5.17;3.60;;;;;;;18.37;77.40;99385.89;1750019;81;21600;-71
2021/09/18 10:05:39;;;;;;;3.33;2.17;;;;;;;18.23;77.89;99379.46;1752791;81;21074;-71
2021/09/18 10:08:06;;;;;;;4.63;3.03;;;;;;;18.20;78.21;99376.86;1750893;81;20993;-72
2021/09/18 10:10:33;;;;;;;4.30;2.10;;;;;;;18.28;78.32;99380.58;1742452;81;21093;-73
2021/09/18 10:13:00;;;;;;;2.67;1.80;;;;;;;18.35;78.41;99375.96;1741431;81;21078;-72
2021/09/18 10:15:28;;;;;;;3.13;2.27;;;;;;;18.42;77.86;99372.91;1744098;81;21227;-73
2021/09/18 10:17:57;;;;;;;3.00;1.90;;;;;;;18.45;78.00;99379.00;1743133;81;21053;-73
2021/09/18 10:23:14;;;;;;;3.70;2.37;;;;;;;18.48;77.68;99375.62;1749613;81;21105;-73
2021/09/18 10:25:42;;;;;;;3.60;2.07;;;;;;;18.53;76.63;99369.78;1746084;81;21623;-73
2021/09/18 10:28:21;;;;;;;3.27;1.90;;;;;;;18.57;75.83;99378.22;1749980;81;21537;-74
2021/09/18 10:31:00;;;;;;;3.23;1.50;;;;;;;18.50;75.41;99376.66;1749452;81;20987;-73
2021/09/18 10:33:44;;;;;;;2.77;1.67;;;;;;;18.48;75.38;99374.27;1751900;81;21575;-74
2021/09/18 10:36:17;;;;;;;2.30;1.50;;;;;;;18.51;75.05;99376.30;1745071;81;21509;-73
2021/09/18 10:38:48;;;;;;;4.07;3.13;;;;;;;18.49;74.66;99375.86;1747038;81;21129;-74
2021/09/18 10:41:20;;;;;;;6.67;4.97;;;;;;;18.49;73.75;99369.64;1747554;81;21034;-75
2021/09/18 10:43:55;;;;;;;12.13;8.83;;;;;;;18.42;73.81;99378.32;1745367;81;21094;-75
2021/09/18 10:46:56;;;;;;;7.77;5.30;;;;;;;18.32;73.54;99382.83;1749094;81;21074;-75
2021/09/18 10:49:40;;;;;;;5.07;2.43;;;;;;;18.25;73.47;99392.06;1736895;81;21146;-72
2021/09/18 10:52:28;;;;;;;4.00;2.83;;;;;;;18.08;73.24;99403.08;1747064;81;22423;-73
2021/09/18 10:55:08;;;;;;;4.40;3.53;;;;;;;17.93;73.65;99401.80;1735366;81;21536;-74
2021/09/18 10:57:51;;;;;;;4.40;3.20;;;;;;;17.84;73.72;99398.41;1742959;81;21081;-74
2021/09/18 11:00:27;;;;;;;4.03;2.00;;;;;;;17.90;73.98;99407.33;1747681;81;21090;-74
2021/09/18 11:02:58;;;;;;;2.97;2.00;;;;;;;18.03;73.87;99408.93;1748163;81;21167;-74
2021/09/18 11:05:40;;;;;;;2.53;1.80;;;;;;;18.22;73.21;99407.03;1745287;81;21015;-73
2021/09/18 11:08:21;;;;;;;3.42;1.50;;;;;;;18.31;72.20;99406.94;1747386;79;21054;-74
2021/09/18 11:11:00;;;;;;;5.47;1.90;;;;;;;18.44;71.99;99401.77;1749133;79;21113;-74
2021/09/18 11:13:35;;;;;;;3.37;1.50;;;;;;;18.54;70.32;99418.67;1746368;80;21501;-73
2021/09/18 11:16:11;;;;;;;1.93;1.50;;;;;;;18.46;69.83;99390.63;1746763;81;21019;-73
2021/09/18 11:18:42;;;;;;;3.07;1.90;;;;;;;18.38;69.56;99421.25;1739867;81;21639;-74
2021/09/18 11:21:14;;;;;;;;;;;;;;;18.22;69.63;99415.14;1743740;81;21054;-74
2021/09/18 11:23:44;;;;;;;1.77;1.50;;;;;;;18.03;70.18;99421.63;1745290;81;20228;-74
2021/09/18 11:26:44;;;;;;;3.60;1.50;;;;;;;17.95;70.33;99427.92;1744202;81;21527;-76
2021/09/18 11:29:24;;;;;;;2.60;1.30;;;;;;;17.92;70.39;99419.92;1749856;81;21141;-74
2021/09/18 11:32:01;;;;;;;2.62;1.30;;;;;;;17.95;70.47;99417.91;1743303;81;21465;-74
2021/09/18 11:34:32;;;;;;;2.70;1.40;;;;;;;18.12;70.24;99423.68;1755279;81;21113;-73
2021/09/18 11:37:01;;;;;;;3.22;1.20;;;;;;;18.20;69.41;99417.97;1746214;81;21066;-74
2021/09/18 11:39:55;;;;;;;2.13;1.20;;;;;;;18.23;69.53;99428.11;1747063;81;21061;-74
2021/09/18 11:42:39;;;;;;;5.10;1.70;;;;;;;18.31;69.23;99438.59;1752675;81;21318;-75
2021/09/18 11:45:16;;;;;;;2.90;1.60;;;;;;;18.21;68.04;99437.11;1745868;81;21034;-75
2021/09/18 11:47:48;;;;;;;5.67;1.63;;;;;;;18.04;68.00;99441.57;1740465;81;21026;-73
2021/09/18 11:50:34;;;;;;;2.72;1.20;;;;;;;17.92;68.39;99429.37;1751361;81;21113;-74
2021/09/18 11:53:06;;;;;;;3.23;1.37;;;;;;;17.88;68.54;99436.57;1743125;81;21121;-73
2021/09/18 11:55:44;;;;;;;1.25;0.95;;;;;;;17.77;68.64;99435.42;1753263;81;21123;-75
2021/09/18 11:58:26;;;;;;;2.70;1.10;;;;;;;17.63;69.18;99434.86;1752683;81;21663;-74